Hovedside
METAR-TAF:

METAR-TAF

Lufthavner :

Odense, Danmark

Hans Christian Andersen Airport

breddegrad: 55-29N, lengdegrad: 010-20E, høyde over havet: 17 m

Gjeldene værobservasjon

Denne rapporten ble laget for 11 timer og 56 minutter siden, klokken 16:50 UTC
Vind 21 kt fra Vest-nordvest
Temperatur 7°C
Luftfuktighet 42%
Trykk 1005 hPa
Sikt 10 km eller mer
Få skyer i en høyde av 4800 ft

METAR: EKOD 241650Z 29021KT 9999 FEW048 07/M05 Q1005

Tid: 06:46 (04:46 UTC)

Varsel

Denne rapporten ble laget for 16 timer og 53 minutter siden, klokken 11:53 UTC
Varsel gyldig fra 24. klokken 12 UTC til 24. klokken 18 UTC
Vind 15 kt fra Vest med vindkast opp mot 28 kt
Sikt 10 km eller mer
Brutte skyer i en høyde av 2500 ft

TAF: EKOD 241153Z 2412/2418 28015G28KT 9999 BKN025

Værobservasjoner og værvarsel for over 4000 flyplasser (METAR- og TAF-rapporter).

Tilgjengelige stasjoner er representert av de røde og gule prikkene på kartet.

Hold musepekeren over prikken for å se navnet på stasjonen.

Klikk så for å se værobservasjoner og -varsler.

For å forandre kartet kan du klikke på den grønne knappen med svart kryss for å zoome inn, på den grønne knappen med strek for å zoome ut, eller på de grønne pilene for å se tilstøtende kart.


METAR-TAF: